Impacts TAF Board INFO
FOR SITUATIONAL AWARENESS. NOT TO BE USED FOR FLIGHT PLANNING PURPOSES.
IDs:

KPDX - Portland Intl Arpt, OR, US

Issued at 2322 UTC 10 Dec 2017
Updated at 0222 UTC 11 Dec 2017
Potential Impact None Slight Moderate High
Time0153Z 11/03Z 11/04Z 11/05Z 11/06Z 11/07Z 11/08Z 11/09Z 11/10Z 11/11Z 11/12Z 11/13Z 11/14Z 11/15Z>>
Type OBS PRVL PRVL PRVL PRVL PRVL PRVL PRVL PRVL PRVL PRVL PRVL PRVL PRVL
VIS 10 >6 >6 >6 >6 >6 >6 >6 >6 >6 >6 >6 >6 >6
CIG -- -- -- -- -- -- -- -- -- -- -- -- -- --
Cover FEW SCT SCT SCT SCT SCT SCT SCT SCT SCT SCT SCT SCT SCT
FltCat VFR VFR VFR VFR VFR VFR VFR VFR VFR VFR VFR VFR VFR VFR
WX -- -- -- -- -- -- -- -- -- -- -- -- -- --
WDir 110 100 100 100 100 100 100 110 110 110 110 110 110 110
WSpd 16 15 15 15 15 15 15 10 10 10 10 10 10 10
WGst -- 24 24 24 24 24 24 -- -- -- -- -- -- --

Raw TAF
KPDX 102322Z 1100/1124 10015G24KT P6SM SCT250
  FM110900 11010KT P6SM SCT250
  FM111800 11014KT P6SM SCT250


Raw METAR
KPDX 110153Z 11016KT 10SM FEW080 FEW260 03/M04 A3035 RMK AO2 SLP277 T00331039 $
KPDX 110053Z 11017KT 10SM FEW080 FEW260 03/M04 A3036 RMK AO2 SLP281 T00331039 $
KPDX 102353Z 11018G24KT 10SM FEW080 SCT260 04/M03 A3037 RMK AO2 SLP282 T00441033 10072 20028 56013 $

METAR Board
Radar Display
Forecast Discussion

FOR SITUATIONAL AWARENESS. NOT TO BE USED FOR FLIGHT PLANNING PURPOSES.